Time;durP1;ratioP1;P1;durP2;ratioP2;P2;SDS_P1;SDS_P2;PMS_P1;PMS_P2;Temp;Humidity;BMP_temperature;BMP_pressure;BME280_temperature;BME280_humidity;BME280_pressure;Samples;Min_cycle;Max_cycle;Signal;HPM_P1;HPM_P2
2023/09/08 00:01:05;;;;;;;18.02;11.65;;;;;;;18.35;100.00;101639.59;5194367;28;20083;-70
2023/09/08 00:03:36;;;;;;;20.60;10.52;;;;;;;18.37;100.00;101639.38;5194357;28;20033;-70
2023/09/08 00:06:06;;;;;;;14.43;9.30;;;;;;;18.36;100.00;101633.09;5185897;28;20029;-70
2023/09/08 00:08:37;;;;;;;10.63;7.32;;;;;;;18.33;100.00;101627.25;5197481;28;20036;-70
2023/09/08 00:11:07;;;;;;;9.65;6.75;;;;;;;18.29;100.00;101634.94;5184316;28;20025;-70
2023/09/08 00:13:39;;;;;;;14.50;10.45;;;;;;;18.30;100.00;101630.34;5191773;28;20424;-69
2023/09/08 00:16:10;;;;;;;17.67;11.68;;;;;;;18.32;100.00;101633.69;5192322;28;20425;-70
2023/09/08 00:18:40;;;;;;;17.70;11.40;;;;;;;18.32;100.00;101637.28;5195929;28;20089;-70
2023/09/08 00:21:11;;;;;;;18.13;11.13;;;;;;;18.35;100.00;101644.19;5193326;28;20029;-69
2023/09/08 00:23:41;;;;;;;16.17;10.05;;;;;;;18.32;100.00;101639.13;5198162;28;20475;-70
2023/09/08 00:26:12;;;;;;;14.23;8.85;;;;;;;18.28;100.00;101635.16;5191643;28;20049;-70
2023/09/08 00:28:42;;;;;;;12.20;9.18;;;;;;;18.23;100.00;101629.47;5199346;28;20459;-70
2023/09/08 00:31:13;;;;;;;13.27;9.20;;;;;;;18.20;100.00;101633.41;5203425;28;20029;-70
2023/09/08 00:33:44;;;;;;;15.18;9.15;;;;;;;18.16;100.00;101634.00;5192724;28;20030;-70
2023/09/08 00:36:15;;;;;;;15.02;8.10;;;;;;;18.11;100.00;101629.16;5195606;28;20025;-69
2023/09/08 00:38:45;;;;;;;12.98;8.27;;;;;;;18.05;100.00;101630.78;5200827;28;20049;-70
2023/09/08 00:41:16;;;;;;;13.77;8.88;;;;;;;18.02;100.00;101627.63;5186340;28;20022;-70
2023/09/08 00:43:46;;;;;;;15.25;10.40;;;;;;;18.00;100.00;101625.13;5192759;28;20030;-70
2023/09/08 00:46:17;;;;;;;12.57;8.68;;;;;;;17.97;100.00;101624.66;5187716;28;20044;-70
2023/09/08 00:48:48;;;;;;;12.00;8.63;;;;;;;17.93;100.00;101626.13;5193376;28;20068;-70
2023/09/08 00:51:19;;;;;;;9.50;6.53;;;;;;;17.91;100.00;101636.31;5188979;28;20112;-70
2023/09/08 00:53:50;;;;;;;7.57;4.90;;;;;;;17.85;100.00;101625.19;5187138;28;20071;-69
2023/09/08 00:56:20;;;;;;;9.15;6.22;;;;;;;17.83;100.00;101634.59;5191458;28;20037;-69
2023/09/08 00:58:51;;;;;;;8.93;5.60;;;;;;;17.80;100.00;101630.38;5195442;28;20030;-70
2023/09/08 01:01:21;;;;;;;12.65;8.63;;;;;;;17.78;100.00;101637.03;5190264;28;20420;-69
2023/09/08 01:03:52;;;;;;;13.77;8.85;;;;;;;17.77;100.00;101632.63;5201302;28;20033;-69
2023/09/08 01:06:23;;;;;;;11.20;7.85;;;;;;;17.77;100.00;101641.63;5195881;28;20025;-69
2023/09/08 01:08:55;;;;;;;16.42;9.07;;;;;;;17.78;100.00;101634.31;5193859;28;20032;-69
2023/09/08 01:11:34;;;;;;;17.10;10.40;;;;;;;17.77;100.00;101638.91;5200070;28;20041;-69
2023/09/08 01:14:06;;;;;;;18.10;10.32;;;;;;;17.77;100.00;101638.91;5193879;28;20037;-69
2023/09/08 01:16:52;;;;;;;20.48;11.43;;;;;;;17.77;100.00;101636.22;5190093;28;20052;-69
2023/09/08 01:19:22;;;;;;;22.05;11.98;;;;;;;17.77;100.00;101638.06;5200007;28;20026;-69
2023/09/08 01:22:08;;;;;;;20.80;11.48;;;;;;;17.74;100.00;101636.59;5194033;28;20305;-69
2023/09/08 01:25:18;;;;;;;18.13;11.43;;;;;;;17.71;100.00;101636.94;5192508;28;20021;-69
2023/09/08 01:27:52;;;;;;;17.70;11.32;;;;;;;17.68;100.00;101639.22;5199726;28;20025;-69
2023/09/08 01:30:40;;;;;;;16.73;10.70;;;;;;;17.65;100.00;101635.00;5197384;28;20031;-69
2023/09/08 01:33:15;;;;;;;17.63;10.83;;;;;;;17.62;100.00;101638.13;5192173;28;20053;-70
2023/09/08 01:35:46;;;;;;;21.83;11.90;;;;;;;17.64;100.00;101632.47;5194261;28;20345;-70
2023/09/08 01:38:17;;;;;;;19.17;10.88;;;;;;;17.63;100.00;101634.34;5189569;28;20017;-70
2023/09/08 01:40:47;;;;;;;16.80;11.40;;;;;;;17.58;100.00;101631.38;5199226;28;20029;-70
2023/09/08 01:43:18;;;;;;;23.90;9.38;;;;;;;17.57;100.00;101630.56;5191041;28;20026;-69
2023/09/08 01:45:48;;;;;;;14.80;8.15;;;;;;;17.53;100.00;101634.69;5200967;28;20099;-70
2023/09/08 01:48:19;;;;;;;16.98;10.07;;;;;;;17.50;100.00;101628.78;5194063;28;20022;-69
2023/09/08 01:50:49;;;;;;;14.02;8.98;;;;;;;17.52;100.00;101632.13;5198004;28;20021;-70
2023/09/08 01:53:20;;;;;;;20.90;11.07;;;;;;;17.48;100.00;101628.16;5187306;28;20084;-70
2023/09/08 01:55:51;;;;;;;20.13;10.93;;;;;;;17.48;100.00;101630.88;5194059;28;20076;-70
2023/09/08 01:58:21;;;;;;;17.17;11.20;;;;;;;17.45;100.00;101621.22;5188610;28;20087;-70
2023/09/08 02:00:52;;;;;;;16.65;11.48;;;;;;;17.44;100.00;101630.41;5202468;28;20071;-69
2023/09/08 02:03:23;;;;;;;16.73;11.02;;;;;;;17.41;100.00;101635.38;5190847;28;20029;-70
2023/09/08 02:05:53;;;;;;;15.35;8.75;;;;;;;17.39;100.00;101632.00;5195299;28;20036;-70
2023/09/08 02:08:24;;;;;;;13.38;8.90;;;;;;;17.39;100.00;101635.56;5195122;28;20025;-70
2023/09/08 02:10:54;;;;;;;11.27;8.07;;;;;;;17.38;100.00;101630.34;5200286;28;20029;-69
2023/09/08 02:13:25;;;;;;;15.98;11.05;;;;;;;17.37;100.00;101634.06;5194495;28;20032;-69
2023/09/08 02:15:56;;;;;;;13.82;10.10;;;;;;;17.33;100.00;101634.47;5189333;28;20258;-70
2023/09/08 02:18:26;;;;;;;17.77;12.00;;;;;;;17.34;100.00;101628.00;5191311;28;20034;-69
2023/09/08 02:20:57;;;;;;;17.38;12.13;;;;;;;17.35;100.00;101632.38;5186765;28;20033;-70
2023/09/08 02:23:27;;;;;;;18.83;11.52;;;;;;;17.35;100.00;101635.09;5192629;28;20501;-70
2023/09/08 02:25:58;;;;;;;13.98;9.15;;;;;;;17.37;100.00;101634.94;5187687;28;20029;-70
2023/09/08 02:28:29;;;;;;;16.50;9.93;;;;;;;17.34;100.00;101635.31;5193240;28;20030;-70
2023/09/08 02:30:59;;;;;;;16.10;10.65;;;;;;;17.30;100.00;101629.41;5191826;28;20386;-70
2023/09/08 02:33:30;;;;;;;16.52;10.57;;;;;;;17.28;100.00;101628.78;5192157;28;20040;-70
2023/09/08 02:36:07;;;;;;;21.42;11.05;;;;;;;17.27;100.00;101628.94;5196216;28;20057;-70
2023/09/08 02:38:37;;;;;;;16.60;12.23;;;;;;;17.24;100.00;101627.47;5200189;28;20044;-70
2023/09/08 02:41:08;;;;;;;22.55;13.02;;;;;;;17.23;100.00;101624.97;5188865;28;20429;-70
2023/09/08 02:43:38;;;;;;;20.35;12.50;;;;;;;17.20;100.00;101626.16;5196001;28;20234;-70
2023/09/08 02:46:09;;;;;;;16.92;11.60;;;;;;;17.20;100.00;101622.63;5190280;28;20513;-70
2023/09/08 02:48:39;;;;;;;14.10;8.85;;;;;;;17.16;100.00;101627.56;5193641;28;20026;-70
2023/09/08 02:51:12;;;;;;;15.27;7.57;;;;;;;17.14;100.00;101620.69;5192713;28;20095;-70
2023/09/08 02:53:42;;;;;;;13.30;8.43;;;;;;;17.09;100.00;101627.50;5201217;28;20163;-70
2023/09/08 02:56:12;;;;;;;14.98;8.02;;;;;;;17.09;100.00;101626.66;5198667;28;20488;-70
2023/09/08 02:58:44;;;;;;;9.73;7.30;;;;;;;17.06;100.00;101625.16;5190476;28;20058;-70
2023/09/08 03:01:16;;;;;;;11.68;7.90;;;;;;;17.04;100.00;101629.09;5182227;28;20030;-70
2023/09/08 03:03:47;;;;;;;9.95;7.50;;;;;;;17.02;100.00;101629.31;5186847;28;20053;-70
2023/09/08 03:06:20;;;;;;;10.05;5.82;;;;;;;16.98;100.00;101613.59;5186652;28;20021;-70
2023/09/08 03:08:51;;;;;;;10.52;6.68;;;;;;;16.97;100.00;101620.06;5186909;28;20079;-70
2023/09/08 03:11:21;;;;;;;12.63;7.88;;;;;;;16.93;100.00;101616.88;5184496;28;20037;-70
2023/09/08 03:13:51;;;;;;;10.15;7.10;;;;;;;16.90;100.00;101613.72;5193811;28;20053;-70
2023/09/08 03:16:22;;;;;;;12.48;8.32;;;;;;;16.87;100.00;101622.19;5186293;28;20171;-70
2023/09/08 03:18:52;;;;;;;24.17;9.25;;;;;;;16.87;100.00;101616.78;5187264;28;20030;-70
2023/09/08 03:21:23;;;;;;;12.85;7.75;;;;;;;16.82;100.00;101603.81;5188605;28;20053;-70
2023/09/08 03:23:53;;;;;;;13.95;8.60;;;;;;;16.80;100.00;101605.88;5184131;28;20537;-70
2023/09/08 03:26:24;;;;;;;10.35;6.63;;;;;;;16.81;100.00;101608.38;5191330;28;20141;-70
2023/09/08 03:28:54;;;;;;;10.52;7.05;;;;;;;16.78;100.00;101607.94;5200465;28;20030;-70
2023/09/08 03:31:25;;;;;;;12.93;9.13;;;;;;;16.78;100.00;101607.94;5198791;28;20067;-70
2023/09/08 03:33:56;;;;;;;13.30;7.93;;;;;;;16.76;100.00;101610.81;5197510;28;20033;-70
2023/09/08 03:36:26;;;;;;;14.90;9.18;;;;;;;16.77;100.00;101608.97;5200643;28;20394;-70
2023/09/08 03:38:58;;;;;;;18.05;9.60;;;;;;;16.79;100.00;101606.91;5198955;28;20108;-70
2023/09/08 03:41:28;;;;;;;18.35;11.32;;;;;;;16.77;100.00;101607.09;5196825;28;20033;-70
2023/09/08 03:43:59;;;;;;;15.00;9.32;;;;;;;16.79;100.00;101605.03;5194269;28;20037;-70
2023/09/08 03:46:29;;;;;;;16.17;9.57;;;;;;;16.76;100.00;101602.69;5190437;28;20030;-70
2023/09/08 03:49:00;;;;;;;13.45;9.82;;;;;;;16.75;100.00;101606.44;5196627;28;20107;-70
2023/09/08 03:51:31;;;;;;;9.45;6.85;;;;;;;16.72;100.00;101603.28;5192345;28;20087;-70
2023/09/08 03:54:03;;;;;;;9.88;6.95;;;;;;;16.69;100.00;101600.91;5199641;28;20029;-70
2023/09/08 03:56:33;;;;;;;11.82;8.40;;;;;;;16.64;100.00;101593.34;5193179;28;20033;-69
2023/09/08 03:59:04;;;;;;;19.05;10.23;;;;;;;16.63;100.00;101593.53;5194164;28;20087;-70
2023/09/08 04:01:34;;;;;;;16.95;10.77;;;;;;;16.61;100.00;101590.16;5186368;28;20029;-70
2023/09/08 04:04:05;;;;;;;15.38;10.70;;;;;;;16.63;100.00;101590.81;5200126;28;20470;-70
2023/09/08 04:06:35;;;;;;;11.52;8.13;;;;;;;16.60;100.00;101593.91;5191204;28;20045;-70
2023/09/08 04:09:06;;;;;;;14.88;10.30;;;;;;;16.58;100.00;101594.09;5194493;28;20040;-70
2023/09/08 04:11:36;;;;;;;18.90;9.32;;;;;;;16.55;100.00;101603.41;5204780;28;20030;-70
2023/09/08 04:14:07;;;;;;;15.93;8.45;;;;;;;16.54;100.00;101596.31;5189078;28;20080;-70
2023/09/08 04:16:37;;;;;;;13.40;9.25;;;;;;;16.48;100.00;101591.66;5193977;28;20363;-69
2023/09/08 04:19:08;;;;;;;13.80;9.48;;;;;;;16.46;100.00;101595.56;5203759;28;20033;-70
2023/09/08 04:21:41;;;;;;;17.67;10.35;;;;;;;16.45;100.00;101596.59;5199123;28;20398;-70
2023/09/08 04:24:11;;;;;;;11.02;7.88;;;;;;;16.41;100.00;101598.84;5193662;28;20104;-70
2023/09/08 04:26:42;;;;;;;16.65;9.73;;;;;;;16.40;100.00;101597.16;5191338;28;20026;-69
2023/09/08 04:29:12;;;;;;;10.57;7.57;;;;;;;16.42;100.00;101599.72;5195779;28;20411;-70
2023/09/08 04:31:43;;;;;;;9.88;6.85;;;;;;;16.38;100.00;101609.22;5196323;28;20033;-70
2023/09/08 04:34:13;;;;;;;10.57;7.78;;;;;;;16.34;100.00;101606.03;5200028;28;20030;-69
2023/09/08 04:36:44;;;;;;;10.57;8.05;;;;;;;16.29;100.00;101603.88;5182854;28;20436;-70
2023/09/08 04:39:15;;;;;;;16.27;8.10;;;;;;;16.26;100.00;101604.25;5190766;28;20032;-69
2023/09/08 04:41:46;;;;;;;12.77;8.85;;;;;;;16.24;100.00;101609.00;5188774;28;20487;-69
2023/09/08 04:44:16;;;;;;;11.90;8.52;;;;;;;16.23;100.00;101604.63;5199444;28;20045;-69
2023/09/08 04:46:48;;;;;;;12.18;8.50;;;;;;;16.21;100.00;101606.66;5191497;28;20021;-69
2023/09/08 04:49:18;;;;;;;14.10;8.75;;;;;;;16.20;100.00;101607.69;5203314;28;20029;-70
2023/09/08 04:51:49;;;;;;;10.35;7.22;;;;;;;16.20;100.00;101606.84;5198486;28;20030;-69
2023/09/08 04:54:20;;;;;;;12.25;8.63;;;;;;;16.18;100.00;101608.91;5191575;28;20475;-70
2023/09/08 04:56:50;;;;;;;7.13;6.03;;;;;;;16.17;100.00;101610.78;5194501;28;20036;-71
2023/09/08 04:59:22;;;;;;;6.68;5.80;;;;;;;16.12;100.00;101609.66;5184244;28;20025;-71
2023/09/08 05:01:53;;;;;;;8.27;6.13;;;;;;;16.08;100.00;101602.94;5191864;28;20025;-70
2023/09/08 05:04:23;;;;;;;17.38;10.02;;;;;;;16.08;100.00;101609.19;5200362;28;20049;-70
2023/09/08 05:06:54;;;;;;;16.85;9.35;;;;;;;16.09;100.00;101612.72;5192640;28;20060;-70
2023/09/08 05:09:24;;;;;;;9.77;7.10;;;;;;;16.07;100.00;101614.78;5185647;28;20460;-70
2023/09/08 05:11:55;;;;;;;7.28;5.47;;;;;;;16.05;100.00;101625.78;5183637;28;20070;-70
2023/09/08 05:14:25;;;;;;;9.55;6.60;;;;;;;16.05;100.00;101617.66;5190536;28;20026;-70
2023/09/08 05:16:56;;;;;;;10.52;6.25;;;;;;;16.07;100.00;101609.38;5188119;28;20072;-70
2023/09/08 05:19:26;;;;;;;8.02;6.13;;;;;;;16.07;100.00;101610.22;5192870;28;20498;-69
2023/09/08 05:21:57;;;;;;;5.88;5.10;;;;;;;16.12;100.00;101617.78;5189630;28;20018;-69
2023/09/08 05:24:27;;;;;;;5.43;4.40;;;;;;;16.13;100.00;101622.16;5189758;28;20025;-70
2023/09/08 05:26:58;;;;;;;8.82;5.72;;;;;;;16.16;100.00;101621.78;5197491;28;20249;-70
2023/09/08 05:29:28;;;;;;;9.35;6.53;;;;;;;16.20;100.00;101620.41;5191412;28;20025;-70
2023/09/08 05:31:59;;;;;;;6.95;3.85;;;;;;;16.19;100.00;101624.97;5186376;28;20022;-70
2023/09/08 05:34:29;;;;;;;5.75;4.47;;;;;;;16.17;100.00;101624.31;5195243;28;20060;-70
2023/09/08 05:37:00;;;;;;;9.27;6.75;;;;;;;16.17;100.00;101626.19;5195249;28;20403;-70
2023/09/08 05:39:30;;;;;;;6.93;5.35;;;;;;;16.14;100.00;101626.56;5193002;28;20080;-70
2023/09/08 05:42:01;;;;;;;8.43;6.13;;;;;;;16.15;100.00;101630.94;5188951;28;20021;-70
2023/09/08 05:44:31;;;;;;;8.32;4.95;;;;;;;16.19;100.00;101629.53;5197552;28;20029;-70
2023/09/08 05:47:02;;;;;;;7.68;5.78;;;;;;;16.25;100.00;101634.22;5201568;28;20021;-70
2023/09/08 05:49:32;;;;;;;8.15;6.20;;;;;;;16.30;100.00;101629.94;5189671;28;20580;-70
2023/09/08 05:52:03;;;;;;;7.13;5.60;;;;;;;16.40;100.00;101632.38;5196852;28;20025;-70
2023/09/08 05:54:34;;;;;;;9.35;6.60;;;;;;;16.50;100.00;101634.81;5196226;28;20026;-70
2023/09/08 05:57:06;;;;;;;10.13;7.32;;;;;;;16.58;100.00;101638.28;5193280;28;20064;-70
2023/09/08 05:59:36;;;;;;;15.20;9.18;;;;;;;16.72;100.00;101633.09;5189878;28;20053;-70
2023/09/08 06:02:06;;;;;;;19.98;11.57;;;;;;;17.04;100.00;101645.38;5188826;28;20459;-70
2023/09/08 06:04:37;;;;;;;15.93;10.50;;;;;;;17.61;100.00;101644.53;5186492;28;20079;-70
2023/09/08 06:07:07;;;;;;;15.65;9.40;;;;;;;18.16;100.00;101651.13;5192755;28;20485;-71
2023/09/08 06:09:38;;;;;;;28.67;11.20;;;;;;;18.73;100.00;101649.28;5193133;28;20044;-70
2023/09/08 06:12:11;;;;;;;16.40;10.35;;;;;;;19.28;100.00;101648.25;5192286;28;20021;-71
2023/09/08 06:14:42;;;;;;;16.73;9.57;;;;;;;19.78;100.00;101647.97;5181386;28;20049;-71
2023/09/08 06:17:13;;;;;;;17.55;9.20;;;;;;;20.30;100.00;101638.97;5190525;28;20026;-70
2023/09/08 06:19:43;;;;;;;15.27;8.77;;;;;;;20.75;100.00;101651.91;5194905;28;20104;-70
2023/09/08 06:22:14;;;;;;;19.95;10.38;;;;;;;21.13;100.00;101643.78;5186214;28;20109;-70
2023/09/08 06:24:44;;;;;;;16.13;8.88;;;;;;;21.49;100.00;101645.97;5187170;28;20383;-70
2023/09/08 06:27:15;;;;;;;20.27;9.45;;;;;;;21.81;100.00;101656.88;5186070;28;20024;-71
2023/09/08 06:29:45;;;;;;;17.55;9.32;;;;;;;22.10;100.00;101648.03;5194477;28;20026;-71
2023/09/08 06:32:16;;;;;;;18.35;9.90;;;;;;;22.36;100.00;101641.53;5195654;28;20059;-71
2023/09/08 06:34:47;;;;;;;13.27;8.45;;;;;;;22.80;100.00;101649.69;5188833;28;20376;-71
2023/09/08 06:37:18;;;;;;;14.05;9.32;;;;;;;23.08;100.00;101646.44;5183164;28;20045;-71
2023/09/08 06:39:48;;;;;;;16.15;9.35;;;;;;;23.33;100.00;101654.53;5190168;28;20144;-71
2023/09/08 06:42:19;;;;;;;15.40;9.57;;;;;;;23.55;100.00;101646.66;5190543;28;20034;-71
2023/09/08 06:44:49;;;;;;;14.32;9.68;;;;;;;23.69;100.00;101657.19;5187445;28;20035;-71
2023/09/08 06:47:20;;;;;;;14.95;9.35;;;;;;;23.85;100.00;101652.13;5190068;28;20029;-71
2023/09/08 06:49:50;;;;;;;18.42;9.57;;;;;;;24.11;100.00;101654.41;5191680;28;20021;-71
2023/09/08 06:52:21;;;;;;;13.95;9.93;;;;;;;24.40;100.00;101662.78;5185304;28;20029;-71
2023/09/08 06:54:51;;;;;;;17.85;9.40;;;;;;;24.66;100.00;101656.00;5192822;28;20034;-71
2023/09/08 06:57:22;;;;;;;18.65;9.98;;;;;;;24.88;100.00;101662.50;5187857;28;20713;-71
2023/09/08 06:59:52;;;;;;;12.98;8.85;;;;;;;25.15;100.00;101651.88;5184525;28;20202;-71
2023/09/08 07:02:23;;;;;;;12.90;9.23;;;;;;;25.39;100.00;101649.84;5199718;28;20117;-71
2023/09/08 07:04:53;;;;;;;12.75;8.80;;;;;;;25.44;100.00;101655.44;5187863;28;20017;-71
2023/09/08 07:07:23;;;;;;;13.93;9.02;;;;;;;25.62;100.00;101654.41;5189564;28;20048;-71
2023/09/08 07:09:54;;;;;;;14.77;8.70;;;;;;;25.77;100.00;101662.94;5191981;28;20371;-71
2023/09/08 07:12:24;;;;;;;14.82;9.98;;;;;;;25.90;100.00;101653.53;5183836;28;20037;-71
2023/09/08 07:14:55;;;;;;;12.18;9.68;;;;;;;26.04;100.00;101660.38;5197736;28;20029;-71
2023/09/08 07:17:26;;;;;;;13.77;9.45;;;;;;;26.24;100.00;101664.53;5191924;28;20490;-71
2023/09/08 07:19:57;;;;;;;14.20;8.80;;;;;;;26.24;100.00;101662.63;5199846;28;20063;-71
2023/09/08 07:22:27;;;;;;;14.63;9.27;;;;;;;26.37;100.00;101660.63;5182850;28;20053;-71
2023/09/08 07:24:58;;;;;;;12.52;8.68;;;;;;;26.55;100.00;101657.59;5192942;28;20073;-71
2023/09/08 07:27:28;;;;;;;13.60;8.48;;;;;;;26.45;100.00;101662.97;5189195;28;20033;-71
2023/09/08 07:29:59;;;;;;;14.35;9.25;;;;;;;26.54;100.00;101658.69;5192634;28;20034;-71
2023/09/08 07:32:29;;;;;;;10.98;8.85;;;;;;;26.74;100.00;101669.16;5194998;28;21397;-72
2023/09/08 07:35:00;;;;;;;12.40;8.60;;;;;;;26.98;100.00;101662.34;5181848;28;20030;-71
2023/09/08 07:37:30;;;;;;;11.68;8.23;;;;;;;27.01;100.00;101653.56;5187342;28;20037;-72
2023/09/08 07:40:01;;;;;;;11.65;8.82;;;;;;;27.07;100.00;101658.06;5183254;28;20521;-71
2023/09/08 07:42:31;;;;;;;9.82;8.00;;;;;;;27.30;100.00;101662.47;5197108;28;20030;-71
2023/09/08 07:45:02;;;;;;;16.85;8.75;;;;;;;27.30;100.00;101658.88;5189629;28;20386;-72
2023/09/08 07:47:32;;;;;;;10.13;7.60;;;;;;;27.27;100.00;101664.91;5180862;28;20111;-72
2023/09/08 07:50:22;;;;;;;14.80;8.65;;;;;;;27.40;100.00;101652.66;5199052;28;20060;-71
2023/09/08 07:52:55;;;;;;;12.30;7.93;;;;;;;27.53;100.00;101650.31;5194380;28;20122;-71
2023/09/08 07:55:27;;;;;;;14.00;8.02;;;;;;;27.44;100.00;101651.88;5189221;28;20033;-72
2023/09/08 07:57:58;;;;;;;11.32;6.32;;;;;;;27.94;100.00;101661.75;5189958;28;20357;-72
2023/09/08 08:00:29;;;;;;;10.73;7.80;;;;;;;28.13;100.00;101651.16;5188006;28;20401;-72
2023/09/08 08:02:59;;;;;;;12.68;7.57;;;;;;;28.21;100.00;101649.81;5191651;28;20029;-72
2023/09/08 08:05:30;;;;;;;12.77;7.63;;;;;;;28.04;100.00;101652.72;5188393;28;20025;-72
2023/09/08 08:08:00;;;;;;;13.52;7.07;;;;;;;28.54;100.00;101648.69;5192012;28;20514;-72
2023/09/08 08:10:32;;;;;;;10.98;7.10;;;;;;;28.49;100.00;101655.00;5184643;28;20041;-72
2023/09/08 08:13:02;;;;;;;15.00;8.05;;;;;;;28.44;100.00;101660.50;5192651;28;20025;-72
2023/09/08 08:15:36;;;;;;;10.48;7.18;;;;;;;28.69;100.00;101659.00;5189073;28;20033;-72
2023/09/08 08:18:07;;;;;;;9.93;7.10;;;;;;;28.87;100.00;101655.78;5190516;28;20082;-72
2023/09/08 08:20:37;;;;;;;13.40;7.78;;;;;;;28.69;100.00;101657.06;5192491;28;20025;-72
2023/09/08 08:23:08;;;;;;;13.63;7.40;;;;;;;28.81;100.00;101654.06;5195357;28;20025;-72
2023/09/08 08:25:38;;;;;;;8.82;6.38;;;;;;;29.24;100.00;101657.59;5189647;28;20014;-72
2023/09/08 08:28:09;;;;;;;14.35;7.38;;;;;;;29.13;100.00;101657.56;5198902;28;20179;-72
2023/09/08 08:30:39;;;;;;;10.57;6.72;;;;;;;29.36;100.00;101663.69;5196735;28;20364;-72
2023/09/08 08:33:10;;;;;;;11.88;8.32;;;;;;;29.26;100.00;101658.97;5193895;28;20090;-72
2023/09/08 08:35:41;;;;;;;10.80;7.18;;;;;;;29.38;100.00;101659.56;5201802;28;20033;-72
2023/09/08 08:38:11;;;;;;;10.35;7.70;;;;;;;29.53;100.00;101657.94;5186453;28;20034;-72
2023/09/08 08:40:42;;;;;;;10.75;7.53;;;;;;;29.63;100.00;101658.81;5192313;28;20022;-72
2023/09/08 08:43:13;;;;;;;11.10;7.50;;;;;;;29.84;100.00;101654.13;5188654;28;20036;-72
2023/09/08 08:45:45;;;;;;;13.10;7.72;;;;;;;30.02;100.00;101660.19;5193612;28;20541;-72
2023/09/08 08:48:20;;;;;;;15.13;7.15;;;;;;;30.17;100.00;101660.22;5188101;28;20033;-72
2023/09/08 08:50:52;;;;;;;10.05;6.82;;;;;;;30.41;100.00;101661.31;5195482;28;20025;-72
2023/09/08 08:53:22;;;;;;;9.02;6.03;;;;;;;30.39;100.00;101655.22;5188228;28;20048;-72
2023/09/08 08:55:59;;;;;;;11.60;6.80;;;;;;;31.16;100.00;101654.97;5180604;28;20026;-72
2023/09/08 08:58:29;;;;;;;9.48;5.32;;;;;;;31.24;100.00;101661.88;5181312;28;20052;-72
2023/09/08 09:01:01;;;;;;;13.20;7.25;;;;;;;31.32;100.00;101662.13;5180416;28;20096;-73
2023/09/08 09:03:31;;;;;;;10.45;7.03;;;;;;;30.90;100.00;101659.81;5188242;28;20069;-72
2023/09/08 09:06:03;;;;;;;19.92;7.18;;;;;;;31.09;100.00;101651.69;5187410;28;20017;-72
2023/09/08 09:08:35;;;;;;;13.07;7.47;;;;;;;31.40;100.00;101650.44;5178877;28;20030;-72
2023/09/08 09:11:05;;;;;;;14.40;7.80;;;;;;;31.66;100.00;101661.34;5187634;28;20100;-72
2023/09/08 09:13:36;;;;;;;10.05;7.18;;;;;;;31.94;100.00;101651.47;5180158;28;20491;-72
2023/09/08 09:16:10;;;;;;;11.45;7.25;;;;;;;31.85;100.00;101655.97;5179698;28;20030;-72
2023/09/08 09:18:58;;;;;;;11.10;6.40;;;;;;;31.78;100.00;101663.75;5184873;28;20101;-72
2023/09/08 09:21:47;;;;;;;12.00;6.90;;;;;;;31.82;100.00;101657.38;5188566;28;20038;-72
2023/09/08 09:24:29;;;;;;;11.65;7.10;;;;;;;32.05;100.00;101660.53;5193287;28;20037;-73
2023/09/08 09:27:00;;;;;;;17.33;8.85;;;;;;;32.15;100.00;101652.94;5184812;28;20040;-72
2023/09/08 09:29:32;;;;;;;17.42;7.43;;;;;;;32.25;100.00;101657.56;5185478;28;20124;-72
2023/09/08 09:32:06;;;;;;;13.65;7.53;;;;;;;32.36;100.00;101661.09;5185801;28;20116;-72
2023/09/08 09:34:48;;;;;;;11.32;6.90;;;;;;;32.24;100.00;101661.47;5181334;28;20022;-73
2023/09/08 09:37:20;;;;;;;11.95;7.00;;;;;;;31.98;100.00;101655.31;5179962;28;20050;-72
2023/09/08 09:39:53;;;;;;;9.20;6.43;;;;;;;32.13;100.00;101657.09;5183424;28;20092;-73
2023/09/08 09:42:27;;;;;;;12.65;6.72;;;;;;;32.03;100.00;101658.06;5179371;28;20060;-72
2023/09/08 09:45:00;;;;;;;11.93;6.55;;;;;;;32.02;100.00;101661.91;5179413;28;20022;-72
2023/09/08 09:47:31;;;;;;;11.65;6.38;;;;;;;32.10;100.00;101661.31;5185937;28;20064;-72
2023/09/08 09:50:02;;;;;;;9.18;5.97;;;;;;;32.27;100.00;101651.69;5192752;28;20025;-72
2023/09/08 09:52:38;;;;;;;10.63;5.93;;;;;;;32.29;100.00;101652.25;5183287;28;20075;-73
2023/09/08 09:55:10;;;;;;;12.57;6.78;;;;;;;32.14;100.00;101656.81;5187689;28;20037;-72
2023/09/08 09:57:41;;;;;;;8.23;6.25;;;;;;;32.36;100.00;101649.97;5195277;28;20123;-73
2023/09/08 10:00:12;;;;;;;11.88;6.60;;;;;;;32.16;100.00;101653.75;5188958;28;20041;-72
2023/09/08 10:02:43;;;;;;;9.63;6.43;;;;;;;32.12;100.00;101650.72;5190023;28;20308;-72
2023/09/08 10:05:14;;;;;;;8.07;6.63;;;;;;;32.20;100.00;101647.31;5182235;28;20095;-72
2023/09/08 10:07:49;;;;;;;10.63;6.45;;;;;;;32.00;100.00;101646.69;5189923;28;20021;-72
2023/09/08 10:10:22;;;;;;;8.07;5.95;;;;;;;31.80;100.00;101644.88;5181199;28;20029;-73
2023/09/08 10:12:54;;;;;;;10.38;7.13;;;;;;;31.89;100.00;101646.78;5182367;28;20032;-73
2023/09/08 10:15:24;;;;;;;12.30;6.95;;;;;;;31.91;100.00;101643.72;5193590;28;20337;-73
2023/09/08 10:17:57;;;;;;;10.60;6.50;;;;;;;31.84;100.00;101649.59;5179175;28;20033;-73
2023/09/08 10:20:28;;;;;;;9.95;6.35;;;;;;;31.75;100.00;101642.16;5182985;28;20026;-73
2023/09/08 10:23:08;;;;;;;8.65;6.15;;;;;;;31.75;100.00;101648.53;5182309;28;20025;-72
2023/09/08 10:25:43;;;;;;;9.50;6.07;;;;;;;31.90;100.00;101648.44;5179907;28;20037;-73
2023/09/08 10:28:15;;;;;;;15.07;6.88;;;;;;;31.82;100.00;101651.00;5187347;28;20033;-73
2023/09/08 10:30:47;;;;;;;9.13;6.15;;;;;;;31.65;100.00;101654.97;5188341;28;20494;-73
2023/09/08 10:33:20;;;;;;;8.50;5.90;;;;;;;31.45;100.00;101646.81;5192779;28;20037;-73
2023/09/08 10:35:51;;;;;;;13.77;6.63;;;;;;;31.57;100.00;101650.03;5185722;28;20032;-72
2023/09/08 10:38:24;;;;;;;11.35;6.68;;;;;;;31.59;100.00;101653.38;5185399;28;20269;-73
2023/09/08 10:41:27;;;;;;;11.38;6.35;;;;;;;31.78;100.00;101644.34;5196383;28;20072;-73
2023/09/08 10:44:02;;;;;;;8.80;6.53;;;;;;;31.80;100.00;101637.38;5178380;28;20034;-73
2023/09/08 10:46:34;;;;;;;11.13;6.88;;;;;;;31.96;100.00;101647.25;5179715;28;20022;-73
2023/09/08 10:49:07;;;;;;;9.80;6.47;;;;;;;32.06;100.00;101640.78;5188175;28;20026;-74
2023/09/08 10:51:38;;;;;;;10.55;5.63;;;;;;;32.07;100.00;101642.44;5194519;28;20029;-73
2023/09/08 10:54:10;;;;;;;11.32;7.30;;;;;;;32.14;100.00;101645.72;5183807;28;20386;-73
2023/09/08 10:56:53;;;;;;;14.50;6.72;;;;;;;32.11;100.00;101637.16;5188011;28;20029;-73
2023/09/08 10:59:29;;;;;;;10.50;6.65;;;;;;;32.00;100.00;101639.19;5188763;28;20037;-73
2023/09/08 11:02:03;;;;;;;10.40;6.85;;;;;;;32.21;100.00;101640.66;5188195;28;20068;-72
2023/09/08 11:04:37;;;;;;;8.63;6.53;;;;;;;32.41;100.00;101642.41;5187007;28;20504;-73
2023/09/08 11:07:07;;;;;;;14.93;6.72;;;;;;;32.34;100.00;101643.88;5181669;28;20487;-73
2023/09/08 11:09:38;;;;;;;10.82;5.80;;;;;;;32.11;100.00;101642.69;5181352;28;20026;-73
2023/09/08 11:12:08;;;;;;;10.23;5.60;;;;;;;32.30;100.00;101646.41;5187320;28;20463;-72
2023/09/08 11:14:39;;;;;;;7.47;5.63;;;;;;;32.21;100.00;101646.19;5185638;28;20040;-73
2023/09/08 11:17:09;;;;;;;10.85;5.65;;;;;;;32.30;100.00;101642.78;5178306;28;20515;-73
2023/09/08 11:19:47;;;;;;;10.05;6.10;;;;;;;32.45;100.00;101640.72;5179579;28;20026;-73
2023/09/08 11:22:18;;;;;;;9.80;5.50;;;;;;;32.46;100.00;101649.88;5181802;28;20418;-73
2023/09/08 11:24:48;;;;;;;7.75;5.20;;;;;;;32.48;100.00;101650.38;5178105;28;20018;-73
2023/09/08 11:27:20;;;;;;;8.90;5.70;;;;;;;32.54;100.00;101645.63;5185984;28;20493;-73
2023/09/08 11:29:51;;;;;;;7.57;5.38;;;;;;;32.53;100.00;101636.44;5179624;28;20030;-73